Time;durP1;ratioP1;P1;durP2;ratioP2;P2;SDS_P1;SDS_P2;PMS_P1;PMS_P2;Temp;Humidity;BMP_temperature;BMP_pressure;BME280_temperature;BME280_humidity;BME280_pressure;Samples;Min_cycle;Max_cycle;Signal;HPM_P1;HPM_P2
2022/10/08 00:00:54;;;;;;;3.25;1.10;;;13.60;99.90;;;;;;6252062;22;20063;-92
2022/10/08 00:03:26;;;;;;;2.40;1.00;;;13.60;99.90;;;;;;6224172;22;20106;-93
2022/10/08 00:05:55;;;;;;;3.08;1.10;;;13.50;99.90;;;;;;6224094;22;20066;-92
2022/10/08 00:08:21;;;;;;;5.63;1.25;;;13.50;99.90;;;;;;6224615;22;20018;-92
2022/10/08 00:10:54;;;;;;;4.57;1.20;;;13.50;99.90;;;;;;6226399;22;20401;-91
2022/10/08 00:13:21;;;;;;;3.38;1.00;;;13.50;99.90;;;;;;6226251;22;20024;-93
2022/10/08 00:15:47;;;;;;;1.48;0.70;;;13.50;99.90;;;;;;6251376;22;20095;-93
2022/10/08 00:18:13;;;;;;;3.38;1.25;;;13.40;99.90;;;;;;6225975;22;20073;-92
2022/10/08 00:20:38;;;;;;;2.63;0.80;;;13.50;99.90;;;;;;6226121;22;20424;-92
2022/10/08 00:23:04;;;;;;;1.83;0.80;;;13.40;99.90;;;;;;6226290;22;20026;-93
2022/10/08 00:25:30;;;;;;;4.07;1.23;;;13.40;99.90;;;;;;6226429;22;20019;-92
2022/10/08 00:28:54;;;;;;;2.67;0.90;;;13.40;99.90;;;;;;6226334;22;20019;-92
2022/10/08 00:31:23;;;;;;;4.55;1.13;;;13.40;99.90;;;;;;6225643;22;20016;-92
2022/10/08 00:33:54;;;;;;;3.85;0.82;;;13.40;99.90;;;;;;6225810;22;20019;-92
2022/10/08 00:36:20;;;;;;;2.72;0.90;;;13.40;99.90;;;;;;6201442;22;20070;-92
2022/10/08 00:38:46;;;;;;;2.50;0.70;;;13.40;99.90;;;;;;6226537;22;20464;-93
2022/10/08 00:41:21;;;;;;;2.13;0.82;;;13.40;99.90;;;;;;6226345;22;20019;-94
2022/10/08 00:43:50;;;;;;;3.22;0.85;;;13.40;99.90;;;;;;6226636;22;20099;-95
2022/10/08 00:46:53;;;;;;;4.32;0.70;;;13.40;99.90;;;;;;6226266;22;20028;-93
2022/10/08 00:49:21;;;;;;;2.83;0.80;;;13.40;99.90;;;;;;6226281;22;20015;-93
2022/10/08 00:51:51;;;;;;;3.40;0.80;;;13.30;99.90;;;;;;6225333;22;20016;-93
2022/10/08 00:54:20;;;;;;;3.00;0.70;;;13.30;99.90;;;;;;6226499;22;20397;-93
2022/10/08 00:56:52;;;;;;;1.58;0.75;;;13.30;99.90;;;;;;6225975;22;20008;-92
2022/10/08 01:35:31;;;;;;;1.80;0.40;;;13.30;99.90;;;;;;6277427;22;20023;-94
2022/10/08 01:38:03;;;;;;;2.33;0.50;;;13.30;99.90;;;;;;6226163;22;20075;-91
2022/10/08 01:40:34;;;;;;;2.30;0.50;;;13.20;99.90;;;;;;6226117;22;20031;-94
2022/10/08 01:43:02;;;;;;;1.90;0.50;;;13.20;99.90;;;;;;6225844;22;20043;-91
2022/10/08 01:45:39;;;;;;;2.80;0.50;;;13.20;99.90;;;;;;6227502;22;20055;-90
2022/10/08 01:48:11;;;;;;;2.88;0.60;;;13.30;99.90;;;;;;6252279;22;20019;-87
2022/10/08 01:50:42;;;;;;;1.58;0.50;;;13.20;99.90;;;;;;6251908;22;20056;-92
2022/10/08 01:53:18;;;;;;;0.50;0.25;;;13.20;99.90;;;;;;6256273;22;20094;-92
2022/10/08 01:55:52;;;;;;;2.90;0.50;;;13.20;99.90;;;;;;6256171;22;20019;-91
2022/10/08 01:58:26;;;;;;;1.95;0.38;;;13.10;99.90;;;;;;6256397;22;20019;-93
2022/10/08 02:00:53;;;;;;;1.55;0.32;;;13.10;99.90;;;;;;6281621;22;20018;-93
2022/10/08 02:03:18;;;;;;;;;;;13.10;99.90;;;;;;6282015;22;20073;-93
2022/10/08 02:05:49;;;;;;;1.77;0.50;;;13.10;99.90;;;;;;6256268;22;19921;-94
2022/10/08 02:13:25;;;;;;;5.68;0.40;;;13.00;99.90;;;;;;6275804;22;20031;-92
2022/10/08 02:15:51;;;;;;;1.95;0.45;;;13.00;99.90;;;;;;6226048;22;20016;-92
2022/10/08 02:18:21;;;;;;;1.63;0.60;;;13.00;99.90;;;;;;6226848;22;20016;-92
2022/10/08 02:20:55;;;;;;;2.03;0.50;;;13.00;99.90;;;;;;6226206;22;20020;-93
2022/10/08 02:23:53;;;;;;;1.20;0.30;;;12.90;99.90;;;;;;6251502;22;20004;-90
2022/10/08 02:26:30;;;;;;;2.67;0.40;;;12.90;99.90;;;;;;6244546;22;20020;-91
2022/10/08 02:29:05;;;;;;;2.70;0.50;;;12.90;99.90;;;;;;6252115;22;20012;-93
2022/10/08 02:32:04;;;;;;;3.38;0.52;;;12.90;99.90;;;;;;6226455;22;20020;-90
2022/10/08 02:34:33;;;;;;;1.42;0.40;;;12.80;99.90;;;;;;6229315;22;20022;-90
2022/10/08 02:37:11;;;;;;;1.95;0.50;;;12.80;99.90;;;;;;6256275;22;20015;-92
2022/10/08 02:39:40;;;;;;;2.20;0.55;;;12.80;99.90;;;;;;6281403;22;20016;-92
2022/10/08 02:42:13;;;;;;;1.83;0.60;;;12.80;99.90;;;;;;6256322;22;20018;-92
2022/10/08 02:45:06;;;;;;;2.22;0.47;;;12.80;99.90;;;;;;6257017;22;20015;-93
2022/10/08 02:47:47;;;;;;;3.30;0.63;;;12.80;99.90;;;;;;6259739;22;20019;-93
2022/10/08 02:50:18;;;;;;;3.38;1.15;;;12.80;99.90;;;;;;6258506;22;20129;-93
2022/10/08 02:52:47;;;;;;;1.52;0.40;;;12.80;99.90;;;;;;6258964;22;20124;-91
2022/10/08 02:55:38;;;;;;;0.40;0.30;;;12.70;99.90;;;;;;6284307;22;20019;-93
2022/10/08 02:58:08;;;;;;;2.80;0.50;;;12.70;99.90;;;;;;6258346;22;20098;-92
2022/10/08 03:22:39;;;;;;;1.33;0.47;;;12.70;99.90;;;;;;6278462;22;20027;-90
2022/10/08 03:25:05;;;;;;;2.70;0.73;;;12.70;99.90;;;;;;6253064;22;20020;-94
2022/10/08 03:27:33;;;;;;;1.90;0.43;;;12.60;99.90;;;;;;6227318;22;20023;-93
2022/10/08 03:30:15;;;;;;;2.92;0.70;;;12.60;99.90;;;;;;6253052;22;20019;-94
2022/10/08 03:32:40;;;;;;;2.40;0.40;;;12.60;99.90;;;;;;6227593;22;20043;-93
2022/10/08 03:35:06;;;;;;;0.70;0.30;;;12.50;99.90;;;;;;6227979;22;20077;-91
2022/10/08 03:37:32;;;;;;;3.85;0.60;;;12.60;99.90;;;;;;6228420;22;20016;-94
2022/10/08 03:39:58;;;;;;;1.83;0.60;;;12.50;99.90;;;;;;6227542;22;20015;-94
2022/10/08 03:42:23;;;;;;;3.07;0.67;;;12.50;99.90;;;;;;6228289;22;20041;-93
2022/10/08 03:44:49;;;;;;;3.83;0.80;;;12.50;99.90;;;;;;6227580;22;20020;-92
2022/10/08 03:47:15;;;;;;;3.90;0.50;;;12.50;99.90;;;;;;6228154;22;20015;-94
2022/10/08 03:49:40;;;;;;;1.07;0.37;;;12.50;99.90;;;;;;6228091;22;20022;-93
2022/10/08 03:52:06;;;;;;;2.00;0.60;;;12.50;99.90;;;;;;6228202;22;20019;-94
2022/10/08 03:54:35;;;;;;;3.63;0.70;;;12.50;99.90;;;;;;6227455;22;20238;-92
2022/10/08 03:57:02;;;;;;;1.77;0.50;;;12.50;99.90;;;;;;6228135;22;20020;-95
2022/10/08 03:59:27;;;;;;;;;;;12.50;99.90;;;;;;6227061;22;20019;-93
2022/10/08 04:01:53;;;;;;;3.38;0.60;;;12.40;99.90;;;;;;6226971;22;19915;-93
2022/10/08 04:04:19;;;;;;;3.45;0.90;;;12.50;99.90;;;;;;6226727;22;20024;-90
2022/10/08 04:06:45;;;;;;;2.00;0.50;;;12.40;99.90;;;;;;6202126;22;20102;-95
2022/10/08 04:09:10;;;;;;;3.10;0.77;;;12.50;99.90;;;;;;6177288;22;20099;-94
2022/10/08 04:11:36;;;;;;;2.05;0.75;;;12.40;99.90;;;;;;6227031;22;20043;-91
2022/10/08 04:14:40;;;;;;;2.55;0.73;;;12.50;99.90;;;;;;6226759;22;20091;-91
2022/10/08 04:17:05;;;;;;;3.10;0.73;;;12.40;99.90;;;;;;6226506;22;20024;-93
2022/10/08 04:19:31;;;;;;;1.98;0.70;;;12.40;99.90;;;;;;6226298;22;20008;-90
2022/10/08 04:21:57;;;;;;;1.93;0.60;;;12.40;99.90;;;;;;6226039;22;20336;-94
2022/10/08 04:24:23;;;;;;;3.03;0.80;;;12.40;99.90;;;;;;6227151;22;20405;-95
2022/10/08 04:26:48;;;;;;;4.82;1.15;;;12.40;99.90;;;;;;6203259;22;20441;-96
2022/10/08 04:29:14;;;;;;;2.23;0.63;;;12.40;99.90;;;;;;6234047;22;20087;-86
2022/10/08 04:32:24;;;;;;;2.08;0.60;;;12.40;99.90;;;;;;6245926;22;20015;-93
2022/10/08 04:35:08;;;;;;;2.72;0.93;;;12.40;99.90;;;;;;6180911;22;20019;-90
2022/10/08 04:37:35;;;;;;;2.83;0.60;;;12.40;99.90;;;;;;6226235;22;20463;-92
2022/10/08 04:40:24;;;;;;;;;;;12.40;99.90;;;;;;6201480;22;20100;-94
2022/10/08 04:42:50;;;;;;;2.42;0.60;;;12.40;99.90;;;;;;6204981;22;19926;-93
2022/10/08 04:45:40;;;;;;;3.00;0.80;;;12.40;99.90;;;;;;6226450;22;20019;-94
2022/10/08 04:48:06;;;;;;;3.08;0.52;;;12.40;99.90;;;;;;6226526;22;20012;-92
2022/10/08 04:50:31;;;;;;;2.00;0.60;;;12.30;99.90;;;;;;6206603;22;20402;-91
2022/10/08 04:52:57;;;;;;;1.90;0.53;;;12.30;99.90;;;;;;6231559;22;20455;-89
2022/10/08 04:55:23;;;;;;;1.93;0.53;;;12.30;99.90;;;;;;6231960;22;20019;-90
2022/10/08 04:57:49;;;;;;;4.25;0.70;;;12.30;99.90;;;;;;6256982;22;20041;-93
2022/10/08 05:00:15;;;;;;;2.13;0.47;;;12.30;99.90;;;;;;6257086;22;20011;-89
2022/10/08 05:02:53;;;;;;;4.60;0.70;;;12.30;99.90;;;;;;6231956;22;20021;-92
2022/10/08 05:05:19;;;;;;;2.55;0.65;;;12.30;99.90;;;;;;6256512;22;20110;-91
2022/10/08 05:07:44;;;;;;;1.35;0.55;;;12.20;99.90;;;;;;6270190;22;20015;-91
2022/10/08 05:10:10;;;;;;;3.03;0.70;;;12.20;99.90;;;;;;6257146;22;20102;-93
2022/10/08 05:12:36;;;;;;;4.17;0.63;;;12.20;99.90;;;;;;6257000;22;20349;-92
2022/10/08 05:15:02;;;;;;;2.07;0.47;;;12.20;99.90;;;;;;6255669;22;20011;-95
2022/10/08 05:20:03;;;;;;;1.88;0.65;;;12.20;99.90;;;;;;6253756;22;20027;-94
2022/10/08 05:22:32;;;;;;;4.10;0.60;;;12.10;99.90;;;;;;6226051;22;20020;-90
2022/10/08 05:24:58;;;;;;;2.00;0.50;;;12.10;99.90;;;;;;6226680;22;20035;-94
2022/10/08 05:27:24;;;;;;;3.37;0.50;;;12.10;99.90;;;;;;6227899;22;20023;-94
2022/10/08 05:30:01;;;;;;;3.30;0.77;;;12.10;99.90;;;;;;6202368;22;20051;-93
2022/10/08 05:32:27;;;;;;;3.13;0.68;;;12.10;99.90;;;;;;6203187;22;20022;-92
2022/10/08 05:34:53;;;;;;;4.70;0.60;;;12.10;99.90;;;;;;6227609;22;20011;-93
2022/10/08 05:37:32;;;;;;;3.33;0.67;;;12.00;99.90;;;;;;6226019;22;20042;-93
2022/10/08 05:39:58;;;;;;;2.20;0.60;;;12.00;99.90;;;;;;6227078;22;20250;-92
2022/10/08 05:42:24;;;;;;;1.97;0.50;;;12.00;99.90;;;;;;6226745;22;20019;-92
2022/10/08 05:44:49;;;;;;;2.77;0.47;;;12.10;99.90;;;;;;6251481;22;20265;-93
2022/10/08 05:52:26;;;;;;;5.72;1.42;;;12.00;99.90;;;;;;6307724;22;20023;-89
2022/10/08 05:54:52;;;;;;;4.07;0.90;;;12.00;99.90;;;;;;6255348;22;20023;-90
2022/10/08 05:57:17;;;;;;;3.00;0.70;;;11.90;99.90;;;;;;6255258;22;20015;-89
2022/10/08 05:59:43;;;;;;;2.17;0.60;;;11.90;99.90;;;;;;6255116;22;20019;-89
2022/10/08 06:02:49;;;;;;;2.57;0.70;;;11.90;99.90;;;;;;6255055;22;20022;-88
2022/10/08 06:05:58;;;;;;;2.67;0.68;;;11.90;99.90;;;;;;6255088;22;20016;-88
2022/10/08 06:08:24;;;;;;;7.10;1.48;;;11.90;99.90;;;;;;6254950;22;20038;-90
2022/10/08 06:10:51;;;;;;;5.93;0.93;;;11.90;99.90;;;;;;6254855;22;20019;-89
2022/10/08 06:13:19;;;;;;;4.60;1.40;;;11.80;99.90;;;;;;6255024;22;20012;-90
2022/10/08 06:15:59;;;;;;;6.88;1.52;;;11.90;99.90;;;;;;6230414;22;20019;-89
2022/10/08 06:18:26;;;;;;;6.57;1.20;;;11.90;99.90;;;;;;6255466;22;20015;-92
2022/10/08 06:20:53;;;;;;;6.13;0.90;;;11.90;99.90;;;;;;6255809;22;20015;-90
2022/10/08 06:23:20;;;;;;;5.03;0.93;;;11.90;99.90;;;;;;6255854;22;20019;-92
2022/10/08 06:25:46;;;;;;;3.97;0.68;;;11.90;99.90;;;;;;6282646;22;20094;-92
2022/10/08 06:28:12;;;;;;;3.33;1.17;;;11.90;99.90;;;;;;6230492;22;20019;-93
2022/10/08 06:30:41;;;;;;;5.18;1.10;;;11.90;99.90;;;;;;6256139;22;20015;-94
2022/10/08 06:33:09;;;;;;;4.13;0.90;;;11.90;99.90;;;;;;6259063;22;20058;-93
2022/10/08 06:35:35;;;;;;;3.60;1.08;;;11.90;99.90;;;;;;6300309;22;20016;-92
2022/10/08 06:38:01;;;;;;;3.97;0.75;;;11.90;99.90;;;;;;6258360;22;20015;-93
2022/10/08 06:40:31;;;;;;;2.38;0.65;;;11.90;99.90;;;;;;6253960;22;20336;-92
2022/10/08 06:42:56;;;;;;;5.78;1.13;;;12.00;99.90;;;;;;6253510;22;20019;-92
2022/10/08 06:45:22;;;;;;;2.80;0.63;;;11.90;99.90;;;;;;6230439;22;20026;-95
2022/10/08 06:47:48;;;;;;;1.90;0.60;;;12.00;99.90;;;;;;6254979;22;20075;-91
2022/10/08 06:50:14;;;;;;;3.60;0.70;;;12.00;99.90;;;;;;6255300;22;20015;-90
2022/10/08 06:52:40;;;;;;;1.45;0.55;;;12.10;99.90;;;;;;6255542;22;20309;-93
2022/10/08 06:55:06;;;;;;;1.60;0.60;;;12.10;99.90;;;;;;6256613;22;20015;-93
2022/10/08 06:57:31;;;;;;;1.25;0.28;;;12.20;99.90;;;;;;6256232;22;20022;-93
2022/10/08 06:59:57;;;;;;;1.13;0.43;;;12.30;99.90;;;;;;6255753;22;20015;-92
2022/10/08 07:02:23;;;;;;;4.18;0.52;;;12.30;99.90;;;;;;6282116;22;20012;-91
2022/10/08 07:04:49;;;;;;;2.80;0.50;;;12.40;99.90;;;;;;6255447;22;20062;-92
2022/10/08 07:07:15;;;;;;;1.60;0.60;;;12.40;99.90;;;;;;6258069;22;20073;-92
2022/10/08 07:09:41;;;;;;;2.40;0.50;;;12.40;99.90;;;;;;6276375;22;20007;-90
2022/10/08 07:12:06;;;;;;;2.07;0.50;;;12.40;99.90;;;;;;6278269;22;20034;-92
2022/10/08 07:14:32;;;;;;;2.23;0.30;;;12.40;99.90;;;;;;6235257;22;20098;-90
2022/10/08 07:16:58;;;;;;;1.80;0.43;;;12.40;99.90;;;;;;6281760;22;20026;-90
2022/10/08 07:19:23;;;;;;;2.50;0.50;;;12.40;99.90;;;;;;6230408;22;20011;-89
2022/10/08 07:21:49;;;;;;;2.27;0.40;;;12.30;99.90;;;;;;6282268;22;20249;-92
2022/10/08 07:24:15;;;;;;;2.87;0.67;;;12.30;99.90;;;;;;6256415;22;20433;-92
2022/10/08 07:26:41;;;;;;;0.80;0.30;;;12.30;99.90;;;;;;6256513;22;20068;-91
2022/10/08 07:29:12;;;;;;;0.90;0.20;;;12.30;99.90;;;;;;6231192;22;20502;-91
2022/10/08 07:31:38;;;;;;;1.48;0.20;;;12.30;99.90;;;;;;6255802;22;20011;-93
2022/10/08 07:34:14;;;;;;;2.55;0.50;;;12.30;99.90;;;;;;6256649;22;20012;-90
2022/10/08 07:36:44;;;;;;;2.72;0.70;;;12.30;99.90;;;;;;6257476;22;20015;-94
2022/10/08 07:39:12;;;;;;;2.20;0.32;;;12.30;99.90;;;;;;6258319;22;20053;-92
2022/10/08 07:41:38;;;;;;;1.13;0.20;;;12.30;99.90;;;;;;6257769;22;20034;-93
2022/10/08 07:44:05;;;;;;;3.15;0.30;;;12.30;99.90;;;;;;6232144;22;20440;-90
2022/10/08 07:46:34;;;;;;;0.17;0.10;;;12.30;99.90;;;;;;6257407;22;20054;-91
2022/10/08 07:49:00;;;;;;;1.08;0.20;;;12.20;99.90;;;;;;6283657;22;20452;-95
2022/10/08 07:51:28;;;;;;;1.50;0.40;;;12.20;99.90;;;;;;6257820;22;20463;-91
2022/10/08 07:53:54;;;;;;;4.47;0.60;;;12.20;99.90;;;;;;6256724;22;20011;-92
2022/10/08 07:56:20;;;;;;;3.25;0.40;;;12.30;99.90;;;;;;6257913;22;20023;-94
2022/10/08 07:58:47;;;;;;;0.47;0.28;;;12.30;99.90;;;;;;6284782;22;20272;-93
2022/10/08 08:01:15;;;;;;;0.68;0.20;;;12.30;99.90;;;;;;6283918;22;20011;-92
2022/10/08 08:03:42;;;;;;;2.72;0.40;;;12.30;99.90;;;;;;6258153;22;20011;-95
2022/10/08 08:06:11;;;;;;;3.08;0.50;;;12.40;99.90;;;;;;6258176;22;20011;-94
2022/10/08 08:08:38;;;;;;;0.88;0.10;;;12.40;99.90;;;;;;6258037;22;20015;-92
2022/10/08 08:11:06;;;;;;;1.60;0.40;;;12.40;99.90;;;;;;6256959;22;20007;-91
2022/10/08 08:13:33;;;;;;;1.63;0.20;;;12.50;99.90;;;;;;6256684;22;20015;-94
2022/10/08 08:16:01;;;;;;;1.40;0.25;;;12.50;99.90;;;;;;6257309;22;20042;-91
2022/10/08 08:18:28;;;;;;;0.35;0.15;;;12.60;99.90;;;;;;6257683;22;20479;-91
2022/10/08 08:20:57;;;;;;;1.95;0.30;;;12.60;99.90;;;;;;6257850;22;20452;-92
2022/10/08 08:23:26;;;;;;;4.22;0.30;;;12.70;99.90;;;;;;6257928;22;20015;-90
2022/10/08 08:25:52;;;;;;;1.73;0.20;;;12.80;99.90;;;;;;6257234;22;20019;-92
2022/10/08 08:28:18;;;;;;;2.20;0.30;;;12.80;99.90;;;;;;6256910;22;20019;-89
2022/10/08 08:30:43;;;;;;;0.67;0.27;;;12.90;99.90;;;;;;6231163;22;20090;-92
2022/10/08 08:33:09;;;;;;;2.80;0.20;;;13.00;99.90;;;;;;6256619;22;20015;-89
2022/10/08 08:35:38;;;;;;;0.20;0.10;;;13.10;99.90;;;;;;6256584;22;20067;-91
2022/10/08 08:38:09;;;;;;;2.78;0.10;;;13.20;99.90;;;;;;6256795;22;20019;-89
2022/10/08 08:40:34;;;;;;;0.57;0.10;;;13.20;99.90;;;;;;6255779;22;20015;-89
2022/10/08 08:43:00;;;;;;;1.17;0.30;;;13.20;99.90;;;;;;6255592;22;20035;-88
2022/10/08 08:45:32;;;;;;;0.90;0.10;;;13.10;99.90;;;;;;6281669;22;20019;-89
2022/10/08 08:48:09;;;;;;;0.43;0.10;;;13.00;99.90;;;;;;6255765;22;20022;-89
2022/10/08 08:50:39;;;;;;;1.65;0.30;;;12.90;99.90;;;;;;6255880;22;20015;-90
2022/10/08 08:53:07;;;;;;;1.83;0.63;;;12.90;99.90;;;;;;6256551;22;20026;-89
2022/10/08 08:55:45;;;;;;;1.08;0.10;;;12.80;99.90;;;;;;6256138;22;20081;-90
2022/10/08 08:58:36;;;;;;;2.42;0.20;;;12.90;99.90;;;;;;6256064;22;20016;-92
2022/10/08 09:03:59;;;;;;;1.80;0.30;;;12.90;99.90;;;;;;6275014;22;20102;-89
2022/10/08 09:37:32;;;;;;;1.33;0.10;;;13.70;99.90;;;;;;6308241;22;20019;-89
2022/10/08 09:40:12;;;;;;;3.35;0.30;;;13.70;99.90;;;;;;6229114;22;20463;-90
2022/10/08 09:42:38;;;;;;;3.08;0.30;;;13.70;99.90;;;;;;6252356;22;20046;-89
2022/10/08 09:45:36;;;;;;;2.50;0.20;;;13.80;99.90;;;;;;6254590;22;20225;-90
2022/10/08 09:48:22;;;;;;;0.63;0.20;;;14.00;99.90;;;;;;6254890;22;20061;-90
2022/10/08 09:51:21;;;;;;;2.55;0.20;;;14.10;99.90;;;;;;6280684;22;20015;-89
2022/10/08 09:53:51;;;;;;;1.27;0.20;;;14.10;99.90;;;;;;6266629;22;20050;-87
2022/10/08 09:56:29;;;;;;;2.90;0.38;;;14.10;99.90;;;;;;6270748;22;20099;-88
2022/10/08 09:59:04;;;;;;;1.15;0.40;;;14.10;99.90;;;;;;6257065;22;20026;-89
2022/10/08 10:01:30;;;;;;;1.40;0.50;;;14.10;99.90;;;;;;6254939;22;20015;-90
2022/10/08 10:04:01;;;;;;;1.67;0.20;;;14.10;99.90;;;;;;6255496;22;20019;-90
2022/10/08 10:27:22;;;;;;;1.55;0.20;;;14.80;99.90;;;;;;6274019;22;20046;-93
2022/10/08 10:30:01;;;;;;;2.13;0.30;;;14.70;99.90;;;;;;6250370;22;20077;-91
2022/10/08 10:32:33;;;;;;;1.88;0.50;;;14.60;99.90;;;;;;6225158;22;20015;-92
2022/10/08 10:35:16;;;;;;;3.20;0.40;;;14.40;99.90;;;;;;6224798;22;20020;-92
2022/10/08 10:37:56;;;;;;;3.03;0.25;;;14.30;99.90;;;;;;6224502;22;20094;-91
2022/10/08 10:41:08;;;;;;;1.60;0.60;;;14.20;99.90;;;;;;6223291;22;20022;-90
2022/10/08 10:44:02;;;;;;;1.63;0.30;;;14.10;99.90;;;;;;6225252;22;20047;-86
2022/10/08 10:46:50;;;;;;;1.85;0.30;;;14.00;99.90;;;;;;6224091;22;20023;-87
2022/10/08 10:49:50;;;;;;;1.58;0.20;;;14.00;99.90;;;;;;6224136;22;20015;-88
2022/10/08 10:52:57;;;;;;;4.13;1.55;;;14.20;99.90;;;;;;6198808;22;20015;-87
2022/10/08 10:55:33;;;;;;;3.38;0.30;;;14.40;99.90;;;;;;6280315;22;20329;-89
2022/10/08 10:58:05;;;;;;;1.75;0.30;;;14.40;99.90;;;;;;6253368;22;20015;-87
2022/10/08 11:01:00;;;;;;;1.02;0.20;;;14.40;99.90;;;;;;6254120;22;20015;-90
2022/10/08 11:03:34;;;;;;;2.28;0.50;;;14.30;99.90;;;;;;6233786;22;20019;-89
2022/10/08 11:06:12;;;;;;;0.95;0.20;;;14.20;99.90;;;;;;6254889;22;20011;-89
2022/10/08 11:08:55;;;;;;;0.57;0.10;;;14.10;99.90;;;;;;6282459;22;20015;-88
2022/10/08 11:11:30;;;;;;;0.80;0.20;;;14.00;99.90;;;;;;6256540;22;20054;-91
2022/10/08 11:14:38;;;;;;;0.17;0.10;;;14.00;99.90;;;;;;6257123;22;20452;-90
2022/10/08 11:17:26;;;;;;;0.47;0.00;;;14.00;99.90;;;;;;6256373;22;20341;-87
2022/10/08 11:19:58;;;;;;;0.50;0.15;;;13.90;99.90;;;;;;6256610;22;20077;-86
2022/10/08 11:23:12;;;;;;;1.92;0.25;;;13.70;99.90;;;;;;6257973;22;20103;-86
2022/10/08 11:26:01;;;;;;;2.20;0.60;;;13.50;99.90;;;;;;6255846;22;20356;-86
2022/10/08 11:29:14;;;;;;;2.13;0.17;;;13.40;99.90;;;;;;6256083;22;20023;-87
2022/10/08 11:31:45;;;;;;;2.05;0.45;;;13.30;99.90;;;;;;6280644;22;20082;-87
2022/10/08 11:34:28;;;;;;;3.10;0.25;;;13.30;99.90;;;;;;6255708;22;20019;-86
2022/10/08 11:37:10;;;;;;;2.15;0.40;;;13.30;99.90;;;;;;6255982;22;20019;-85
2022/10/08 11:43:54;;;;;;;2.10;0.30;;;13.40;99.90;;;;;;6189342;23;20016;-86
2022/10/08 11:46:33;;;;;;;2.10;0.75;;;13.40;99.90;;;;;;6164186;23;20148;-87
2022/10/08 11:49:22;;;;;;;0.70;0.15;;;13.30;99.90;;;;;;6158097;23;20016;-87
2022/10/08 11:51:51;;;;;;;2.38;0.55;;;13.30;99.90;;;;;;6188913;23;20450;-88
2022/10/08 11:54:38;;;;;;;2.33;0.32;;;13.30;99.90;;;;;;6196220;23;20119;-90
2022/10/08 11:57:16;;;;;;;;;;;13.40;99.90;;;;;;6213493;23;20056;-88
2022/10/08 11:59:44;;;;;;;1.60;0.28;;;13.50;99.90;;;;;;6213242;23;19916;-87
2022/10/08 12:02:27;;;;;;;1.30;0.30;;;13.70;99.90;;;;;;6197891;23;20021;-89
2022/10/08 12:04:54;;;;;;;2.88;0.30;;;13.90;99.90;;;;;;6194885;23;20024;-90
2022/10/08 12:07:27;;;;;;;0.50;0.25;;;14.10;99.90;;;;;;6194053;23;20024;-88
2022/10/08 12:10:04;;;;;;;1.90;0.30;;;14.30;99.90;;;;;;6194495;23;20026;-87
2022/10/08 12:12:48;;;;;;;3.00;0.40;;;14.40;99.90;;;;;;6216961;23;20484;-87
2022/10/08 12:15:23;;;;;;;2.83;0.32;;;14.60;99.90;;;;;;6243567;22;20019;-87
2022/10/08 12:17:51;;;;;;;2.97;0.65;;;14.70;99.90;;;;;;6304728;22;20065;-86
2022/10/08 12:20:25;;;;;;;5.13;0.50;;;14.80;99.90;;;;;;6279543;22;20018;-86
2022/10/08 12:23:07;;;;;;;2.33;0.57;;;14.90;99.90;;;;;;6279962;22;20019;-86
2022/10/08 12:25:58;;;;;;;4.55;0.75;;;14.90;99.90;;;;;;6280478;22;20092;-87
2022/10/08 12:28:34;;;;;;;1.23;0.30;;;14.80;99.90;;;;;;6224911;22;20069;-86
2022/10/08 12:31:14;;;;;;;2.00;0.38;;;14.80;99.90;;;;;;6250303;22;20019;-87
2022/10/08 12:33:40;;;;;;;2.72;0.30;;;14.70;99.90;;;;;;6250244;22;20105;-85
2022/10/08 12:36:15;;;;;;;2.00;0.50;;;14.70;99.90;;;;;;6250677;22;20101;-87
2022/10/08 12:39:03;;;;;;;2.67;0.75;;;14.60;99.90;;;;;;6250492;22;20020;-88
2022/10/08 12:41:37;;;;;;;2.63;0.30;;;14.60;99.90;;;;;;6225131;22;20020;-86
2022/10/08 12:44:10;;;;;;;1.50;0.65;;;14.40;99.90;;;;;;6250285;22;20020;-87
2022/10/08 12:46:36;;;;;;;3.65;0.40;;;14.20;99.90;;;;;;6250063;22;20020;-88
2022/10/08 12:49:22;;;;;;;2.33;0.30;;;14.20;99.90;;;;;;6249981;22;20457;-89
2022/10/08 12:51:59;;;;;;;2.28;0.35;;;14.10;99.90;;;;;;6223708;22;20017;-86
2022/10/08 12:54:28;;;;;;;4.63;0.35;;;14.20;99.90;;;;;;6224131;22;20078;-86
2022/10/08 12:56:54;;;;;;;1.50;0.77;;;14.20;99.90;;;;;;6249752;22;20011;-86
2022/10/08 12:59:23;;;;;;;1.45;0.35;;;14.30;99.90;;;;;;6277236;22;20118;-87
2022/10/08 13:01:52;;;;;;;0.75;0.20;;;14.40;99.90;;;;;;6225083;22;20043;-89
2022/10/08 13:04:24;;;;;;;4.28;0.55;;;14.50;99.90;;;;;;6199225;22;20342;-87
2022/10/08 13:06:52;;;;;;;2.13;0.30;;;14.60;99.90;;;;;;6250214;22;20030;-88
2022/10/08 13:09:30;;;;;;;2.38;0.28;;;14.50;99.90;;;;;;6277346;22;20341;-91
2022/10/08 13:11:58;;;;;;;2.22;0.20;;;14.40;99.90;;;;;;6250604;22;20011;-90
2022/10/08 13:14:30;;;;;;;2.60;0.30;;;14.30;99.90;;;;;;6225727;22;20019;-91
2022/10/08 13:16:57;;;;;;;2.35;0.40;;;14.30;99.90;;;;;;6250675;22;20023;-87
2022/10/08 13:19:32;;;;;;;1.17;0.20;;;14.30;99.90;;;;;;6224973;22;20020;-91
2022/10/08 13:22:22;;;;;;;2.30;0.40;;;14.40;99.90;;;;;;6225633;22;20382;-92
2022/10/08 13:24:54;;;;;;;1.27;0.20;;;14.40;99.90;;;;;;6226257;22;20016;-88
2022/10/08 13:27:26;;;;;;;0.52;0.10;;;14.50;99.90;;;;;;6242929;22;20026;-87
2022/10/08 13:29:52;;;;;;;1.40;0.30;;;14.50;99.90;;;;;;6280638;22;20050;-88
2022/10/08 13:32:20;;;;;;;;;;;14.50;99.90;;;;;;6230702;22;20376;-90
2022/10/08 13:34:52;;;;;;;4.05;0.22;;;14.50;99.90;;;;;;6255354;22;19957;-90
2022/10/08 13:37:21;;;;;;;2.70;0.30;;;14.60;99.90;;;;;;6280321;22;20082;-89
2022/10/08 13:40:00;;;;;;;2.90;0.45;;;14.60;99.90;;;;;;6307868;22;20022;-93
2022/10/08 13:42:32;;;;;;;1.75;0.10;;;14.60;99.90;;;;;;6254925;22;20101;-89
2022/10/08 13:45:00;;;;;;;2.00;0.47;;;14.60;99.90;;;;;;6253900;22;20018;-91
2022/10/08 13:47:27;;;;;;;3.67;0.85;;;14.60;99.90;;;;;;6255360;22;20019;-89
2022/10/08 13:50:00;;;;;;;3.70;0.25;;;14.70;99.90;;;;;;6255707;22;20495;-90
2022/10/08 13:52:28;;;;;;;1.38;0.20;;;14.70;99.90;;;;;;6280746;22;20448;-88
2022/10/08 13:55:02;;;;;;;3.70;0.30;;;14.70;99.90;;;;;;6255023;22;20020;-89
2022/10/08 13:57:27;;;;;;;2.33;0.50;;;14.70;99.90;;;;;;6257512;22;20019;-91
2022/10/08 13:59:53;;;;;;;2.45;0.40;;;14.70;99.90;;;;;;6247869;22;19999;-88
2022/10/08 14:02:19;;;;;;;1.85;0.20;;;14.70;99.90;;;;;;6273219;22;20016;-90
2022/10/08 14:04:45;;;;;;;2.77;0.40;;;14.70;99.90;;;;;;6284655;22;20023;-89
2022/10/08 14:07:25;;;;;;;2.40;0.45;;;14.80;99.90;;;;;;6229650;22;20023;-92
2022/10/08 14:12:31;;;;;;;3.45;0.30;;;14.70;99.90;;;;;;6267915;22;20437;-89
2022/10/08 14:15:58;;;;;;;3.60;0.50;;;14.60;99.90;;;;;;6193302;23;20028;-91
2022/10/08 14:18:51;;;;;;;1.23;0.38;;;14.50;99.90;;;;;;6127682;23;20054;-89
2022/10/08 14:21:17;;;;;;;2.97;0.30;;;14.40;99.90;;;;;;6166286;23;20404;-88
2022/10/08 14:23:43;;;;;;;1.60;0.20;;;14.40;99.90;;;;;;6168719;23;20098;-90
2022/10/08 14:29:16;;;;;;;3.10;0.30;;;14.20;99.90;;;;;;6275121;22;20020;-88
2022/10/08 14:31:51;;;;;;;4.22;0.43;;;14.20;99.90;;;;;;6214955;23;20055;-88
2022/10/08 14:34:17;;;;;;;2.67;0.37;;;14.20;99.90;;;;;;6190651;23;20515;-87
2022/10/08 14:36:42;;;;;;;0.97;0.10;;;14.20;99.90;;;;;;6215205;23;20024;-89
2022/10/08 14:39:11;;;;;;;1.20;0.30;;;14.10;99.90;;;;;;6165324;23;20774;-88
2022/10/08 14:41:39;;;;;;;1.17;0.25;;;14.10;99.90;;;;;;6170022;23;20031;-89
2022/10/08 14:44:05;;;;;;;2.47;0.22;;;14.10;99.90;;;;;;6218343;23;20020;-89
2022/10/08 14:46:31;;;;;;;1.23;0.20;;;14.10;99.90;;;;;;6170020;23;20023;-89
2022/10/08 14:48:57;;;;;;;1.45;0.22;;;14.10;99.90;;;;;;6195662;23;20099;-88
2022/10/08 14:51:22;;;;;;;0.47;0.22;;;14.10;99.90;;;;;;6196338;23;20048;-89
2022/10/08 14:53:49;;;;;;;2.17;0.32;;;14.10;99.90;;;;;;6173278;23;20039;-91
2022/10/08 14:59:09;;;;;;;2.50;0.30;;;14.10;99.90;;;;;;6249610;22;20034;-95
2022/10/08 15:01:35;;;;;;;1.08;0.45;;;14.00;99.90;;;;;;6197063;23;20461;-93
2022/10/08 15:04:04;;;;;;;0.85;0.17;;;14.00;99.90;;;;;;6197437;23;20151;-93
2022/10/08 15:06:29;;;;;;;3.15;0.15;;;14.00;99.90;;;;;;6173123;23;20023;-91
2022/10/08 15:08:55;;;;;;;1.80;0.50;;;14.00;99.90;;;;;;6197732;23;20016;-91
2022/10/08 15:11:21;;;;;;;3.97;0.50;;;14.00;99.90;;;;;;6172303;23;20012;-93
2022/10/08 15:13:49;;;;;;;5.45;0.30;;;14.10;99.90;;;;;;6196884;23;20259;-94
2022/10/08 15:16:15;;;;;;;2.13;0.30;;;14.10;99.90;;;;;;6196944;23;20471;-92
2022/10/08 15:18:43;;;;;;;2.03;0.85;;;14.10;99.90;;;;;;6196976;23;20023;-93
2022/10/08 15:21:09;;;;;;;0.88;0.30;;;14.20;99.90;;;;;;6197130;23;20016;-94
2022/10/08 15:23:34;;;;;;;1.23;0.32;;;14.20;99.90;;;;;;6196825;23;20019;-91
2022/10/08 15:26:06;;;;;;;1.70;0.40;;;14.20;99.90;;;;;;6169507;23;20043;-91
2022/10/08 15:28:36;;;;;;;2.75;0.40;;;14.20;99.90;;;;;;6195966;23;20259;-92
2022/10/08 15:31:13;;;;;;;0.65;0.15;;;14.20;99.90;;;;;;6196735;23;20454;-91
2022/10/08 15:33:40;;;;;;;1.85;0.30;;;14.20;99.90;;;;;;6196410;23;20023;-90